createdAt,value
2019-05-30T00:01:34.061Z,13.10
2019-05-30T00:04:03.310Z,13.00
2019-05-30T00:06:31.881Z,13.00
2019-05-30T00:09:00.497Z,12.90
2019-05-30T00:11:28.830Z,12.90
2019-05-30T00:13:56.758Z,12.90
2019-05-30T00:16:24.385Z,12.90
2019-05-30T00:18:52.585Z,13.00
2019-05-30T00:21:20.297Z,13.00
2019-05-30T00:23:47.997Z,12.90
2019-05-30T00:26:15.742Z,12.80
2019-05-30T00:28:46.257Z,12.70
2019-05-30T00:31:16.106Z,12.60
2019-05-30T00:33:43.959Z,12.60
2019-05-30T00:36:11.683Z,12.60
2019-05-30T00:38:39.409Z,12.60
2019-05-30T00:41:07.134Z,12.60
2019-05-30T00:43:34.829Z,12.60
2019-05-30T00:46:02.554Z,12.60
2019-05-30T00:48:30.261Z,12.60
2019-05-30T00:50:58.363Z,12.60
2019-05-30T00:53:26.093Z,12.60
2019-05-30T00:55:53.809Z,12.50
2019-05-30T00:58:21.509Z,12.30
2019-05-30T01:00:49.242Z,12.20
2019-05-30T01:03:17.009Z,12.20
2019-05-30T01:05:44.801Z,12.20
2019-05-30T01:08:12.505Z,12.20
2019-05-30T01:10:40.232Z,12.30
2019-05-30T01:13:07.932Z,12.30
2019-05-30T01:15:35.646Z,12.40
2019-05-30T01:18:03.333Z,12.40
2019-05-30T01:20:31.059Z,12.30
2019-05-30T01:22:59.191Z,12.20
2019-05-30T01:25:27.077Z,12.10
2019-05-30T01:27:54.771Z,12.00
2019-05-30T01:30:22.461Z,12.00
2019-05-30T01:32:50.185Z,12.00
2019-05-30T01:35:18.249Z,12.00
2019-05-30T01:37:46.065Z,12.00
2019-05-30T01:40:13.789Z,12.00
2019-05-30T01:42:41.544Z,12.00
2019-05-30T01:45:09.747Z,12.00
2019-05-30T01:47:37.475Z,12.00
2019-05-30T01:50:06.412Z,12.00
2019-05-30T01:52:34.215Z,12.00
2019-05-30T01:55:02.776Z,12.00
2019-05-30T01:57:30.558Z,12.10
2019-05-30T01:59:58.699Z,12.10
2019-05-30T02:02:26.477Z,12.10
2019-05-30T02:04:54.173Z,12.10
2019-05-30T02:07:21.897Z,12.00
2019-05-30T02:09:49.636Z,11.90
2019-05-30T02:12:17.425Z,11.90
2019-05-30T02:14:45.145Z,11.80
2019-05-30T02:17:13.174Z,11.70
2019-05-30T02:19:40.877Z,11.60
2019-05-30T02:22:08.605Z,11.60
2019-05-30T02:24:36.305Z,11.50
2019-05-30T02:27:04.221Z,11.40
2019-05-30T02:29:32.021Z,11.40
2019-05-30T02:32:00.957Z,11.30
2019-05-30T02:34:29.242Z,11.20
2019-05-30T02:36:57.030Z,11.20
2019-05-30T02:39:24.730Z,11.20
2019-05-30T02:41:52.428Z,11.20
2019-05-30T02:44:20.222Z,11.20
2019-05-30T02:46:47.943Z,11.00
2019-05-30T02:49:15.658Z,11.00
2019-05-30T02:51:43.357Z,11.00
2019-05-30T02:54:12.715Z,11.00
2019-05-30T02:56:40.615Z,11.00
2019-05-30T02:59:09.346Z,11.00
2019-05-30T03:01:58.389Z,10.90
2019-05-30T03:04:08.696Z,10.90
2019-05-30T03:06:36.971Z,10.80
2019-05-30T03:09:06.178Z,10.70
2019-05-30T03:11:34.999Z,10.70
2019-05-30T03:14:04.256Z,10.70
2019-05-30T03:16:32.221Z,10.80
2019-05-30T03:19:01.796Z,10.80
2019-05-30T03:21:29.622Z,10.80
2019-05-30T03:23:57.350Z,10.70
2019-05-30T03:26:25.046Z,10.60
2019-05-30T03:28:53.625Z,10.60
2019-05-30T03:31:28.613Z,10.60
2019-05-30T03:33:51.250Z,10.50
2019-05-30T03:36:28.458Z,10.50
2019-05-30T03:38:48.608Z,10.50
2019-05-30T03:41:16.294Z,10.50
2019-05-30T03:43:44.035Z,10.40
2019-05-30T03:46:36.943Z,10.40
2019-05-30T03:49:06.512Z,10.40
2019-05-30T03:51:34.150Z,10.40
2019-05-30T03:54:01.880Z,10.40
2019-05-30T03:56:34.485Z,10.50
2019-05-30T03:59:10.162Z,10.50
2019-05-30T04:01:54.586Z,10.50
2019-05-30T04:04:25.269Z,10.50
2019-05-30T04:06:58.719Z,10.40
2019-05-30T04:09:26.430Z,10.30
2019-05-30T04:12:03.557Z,10.30
2019-05-30T04:14:33.010Z,10.30
2019-05-30T04:17:00.714Z,10.30
2019-05-30T04:19:28.415Z,10.40
2019-05-30T04:21:56.166Z,10.40
2019-05-30T04:24:23.906Z,10.50
2019-05-30T04:26:51.650Z,10.60
2019-05-30T04:29:19.344Z,10.60
2019-05-30T04:31:47.090Z,10.80
2019-05-30T04:34:15.339Z,11.00
2019-05-30T04:36:44.454Z,11.10
2019-05-30T04:39:13.016Z,11.30
2019-05-30T04:41:40.829Z,11.70
2019-05-30T04:44:09.807Z,12.00
2019-05-30T04:46:38.056Z,12.50
2019-05-30T04:49:05.745Z,13.10
2019-05-30T04:51:33.458Z,13.20
2019-05-30T04:54:01.170Z,13.10
2019-05-30T04:56:28.942Z,13.80
2019-05-30T04:58:56.638Z,14.90
2019-05-30T05:01:24.370Z,16.10
2019-05-30T05:03:52.068Z,17.50
2019-05-30T05:06:19.948Z,18.80
2019-05-30T05:08:47.684Z,19.90
2019-05-30T05:11:18.351Z,20.70
2019-05-30T05:13:44.910Z,21.50
2019-05-30T05:16:24.389Z,22.30
2019-05-30T05:18:42.171Z,23.00
2019-05-30T05:21:09.905Z,23.70
2019-05-30T05:23:37.768Z,24.10
2019-05-30T05:26:05.487Z,24.60
2019-05-30T05:28:36.401Z,25.30
2019-05-30T05:31:04.149Z,26.00
2019-05-30T05:33:31.906Z,26.30
2019-05-30T05:35:59.670Z,26.70
2019-05-30T05:38:28.475Z,27.20
2019-05-30T05:40:56.173Z,27.10
2019-05-30T05:43:24.500Z,27.40
2019-05-30T05:45:52.299Z,27.60
2019-05-30T05:48:20.451Z,27.80
2019-05-30T05:50:48.217Z,28.30
2019-05-30T05:53:16.642Z,28.50
2019-05-30T05:55:44.390Z,28.60
2019-05-30T05:58:12.089Z,28.50
2019-05-30T06:00:39.814Z,28.90
2019-05-30T06:03:07.533Z,29.10
2019-05-30T06:05:35.238Z,29.60
2019-05-30T06:08:03.044Z,28.70
2019-05-30T06:10:30.742Z,27.40
2019-05-30T06:12:58.489Z,27.40
2019-05-30T06:15:26.193Z,28.10
2019-05-30T06:17:53.922Z,29.00
2019-05-30T06:20:21.644Z,30.20
2019-05-30T06:22:49.365Z,31.00
2019-05-30T06:25:18.911Z,31.50
2019-05-30T06:27:47.049Z,31.80
2019-05-30T06:30:14.775Z,31.90
2019-05-30T06:32:42.499Z,31.80
2019-05-30T06:35:10.336Z,32.10
2019-05-30T06:37:38.143Z,32.40
2019-05-30T06:40:05.996Z,32.80
2019-05-30T06:42:33.893Z,33.00
2019-05-30T06:45:01.719Z,33.30
2019-05-30T06:47:30.500Z,33.40
2019-05-30T06:49:58.379Z,33.80
2019-05-30T06:52:27.087Z,33.80
2019-05-30T06:54:54.802Z,33.80
2019-05-30T06:57:23.148Z,34.30
2019-05-30T06:59:52.425Z,34.40
2019-05-30T07:02:20.162Z,35.00
2019-05-30T07:04:52.197Z,35.20
2019-05-30T07:07:17.839Z,35.60
2019-05-30T07:09:45.749Z,36.20
2019-05-30T07:12:13.470Z,36.10
2019-05-30T07:14:41.253Z,35.30
2019-05-30T07:17:09.456Z,36.20
2019-05-30T07:19:37.895Z,37.00
2019-05-30T07:22:05.701Z,37.70
2019-05-30T07:24:33.926Z,37.30
2019-05-30T07:27:01.662Z,37.00
2019-05-30T07:29:30.003Z,36.40
2019-05-30T07:31:57.702Z,35.90
2019-05-30T07:34:25.948Z,34.90
2019-05-30T07:36:53.814Z,34.00
2019-05-30T07:39:21.542Z,33.80
2019-05-30T07:42:05.260Z,33.30
2019-05-30T07:44:18.793Z,32.70
2019-05-30T07:46:46.494Z,32.90
2019-05-30T07:49:14.261Z,33.20
2019-05-30T07:51:42.147Z,33.10
2019-05-30T07:54:09.896Z,32.80
2019-05-30T07:56:38.075Z,32.30
2019-05-30T07:59:05.774Z,31.40
2019-05-30T08:01:34.591Z,30.20
2019-05-30T08:04:02.513Z,28.80
2019-05-30T08:06:30.251Z,27.30
2019-05-30T08:08:57.957Z,26.20
2019-05-30T08:11:26.688Z,25.00
2019-05-30T08:13:54.514Z,24.10
2019-05-30T08:16:22.273Z,23.20
2019-05-30T08:18:50.039Z,22.70
2019-05-30T08:21:17.829Z,22.20
2019-05-30T08:23:45.524Z,22.00
2019-05-30T08:26:13.272Z,21.70
2019-05-30T08:28:42.667Z,21.60
2019-05-30T08:31:10.590Z,21.40
2019-05-30T08:33:39.722Z,21.30
2019-05-30T08:36:07.792Z,21.00
2019-05-30T08:38:35.586Z,20.80
2019-05-30T08:41:03.320Z,20.70
2019-05-30T08:43:31.292Z,20.50
2019-05-30T08:45:59.185Z,20.30
2019-05-30T08:48:26.932Z,20.30
2019-05-30T08:50:54.659Z,20.30
2019-05-30T08:53:22.388Z,20.40
2019-05-30T08:55:50.191Z,20.50
2019-05-30T08:58:18.100Z,20.60
2019-05-30T09:00:45.856Z,20.80
2019-05-30T09:03:13.552Z,21.00
2019-05-30T09:05:57.741Z,21.30
2019-05-30T09:08:10.810Z,21.40
2019-05-30T09:10:39.489Z,21.50
2019-05-30T09:13:08.166Z,21.80
2019-05-30T09:15:37.502Z,22.10
2019-05-30T09:18:05.413Z,22.30
2019-05-30T09:20:33.129Z,22.50
2019-05-30T09:23:00.858Z,22.80
2019-05-30T09:25:28.561Z,23.10
2019-05-30T09:27:56.294Z,23.00
2019-05-30T09:30:24.050Z,23.00
2019-05-30T09:32:51.745Z,23.20
2019-05-30T09:35:19.574Z,23.40
2019-05-30T09:37:47.810Z,23.60
2019-05-30T09:40:15.889Z,24.00
2019-05-30T09:42:44.747Z,23.90
2019-05-30T09:45:13.638Z,23.30
2019-05-30T09:47:43.237Z,22.90
2019-05-30T09:50:10.870Z,22.60
2019-05-30T09:52:38.590Z,22.70
2019-05-30T09:55:06.598Z,23.00
2019-05-30T09:57:34.317Z,22.80
2019-05-30T10:00:02.035Z,23.00
2019-05-30T10:02:29.747Z,23.00
2019-05-30T10:04:57.473Z,23.30
2019-05-30T10:07:25.199Z,23.40
2019-05-30T10:09:53.113Z,23.30
2019-05-30T10:12:20.909Z,23.10
2019-05-30T10:14:48.751Z,22.90
2019-05-30T10:17:16.538Z,22.80
2019-05-30T10:19:45.392Z,23.10
2019-05-30T10:22:13.557Z,23.20
2019-05-30T10:24:43.032Z,23.60
2019-05-30T10:27:10.777Z,23.90
2019-05-30T10:29:38.545Z,24.30
2019-05-30T10:32:06.229Z,24.30
2019-05-30T10:34:33.947Z,24.30
2019-05-30T10:37:01.653Z,24.20
2019-05-30T10:39:29.493Z,23.60
2019-05-30T10:41:57.293Z,23.60
2019-05-30T10:44:25.014Z,23.90
2019-05-30T10:46:52.882Z,24.30
2019-05-30T10:49:33.591Z,24.40
2019-05-30T10:51:51.531Z,23.90
2019-05-30T10:54:19.377Z,24.10
2019-05-30T10:56:48.401Z,23.70
2019-05-30T10:59:16.514Z,23.30
2019-05-30T11:01:44.221Z,23.30
2019-05-30T11:04:11.949Z,23.50
2019-05-30T11:07:09.905Z,23.50
2019-05-30T11:09:26.081Z,23.80
2019-05-30T11:11:54.907Z,23.60
2019-05-30T11:14:22.702Z,23.40
2019-05-30T11:16:51.696Z,23.40
2019-05-30T11:19:19.607Z,23.20
2019-05-30T11:21:47.885Z,23.40
2019-05-30T11:24:15.641Z,23.50
2019-05-30T11:26:43.329Z,23.60
2019-05-30T11:29:11.046Z,23.50
2019-05-30T11:31:38.756Z,23.20
2019-05-30T11:34:06.484Z,23.00
2019-05-30T11:36:34.196Z,23.00
2019-05-30T11:39:01.892Z,23.30
2019-05-30T11:41:29.679Z,23.40
2019-05-30T11:43:57.811Z,23.60
2019-05-30T11:46:25.719Z,23.90
2019-05-30T11:48:53.703Z,24.10
2019-05-30T11:51:21.561Z,23.80
2019-05-30T11:53:49.747Z,23.80
2019-05-30T11:56:17.493Z,23.70
2019-05-30T11:58:45.196Z,23.80
2019-05-30T12:01:12.940Z,23.90
2019-05-30T12:03:40.675Z,24.20
2019-05-30T12:06:08.389Z,24.50
2019-05-30T12:08:36.084Z,24.40
2019-05-30T12:11:03.814Z,24.30
2019-05-30T12:13:31.519Z,24.50
2019-05-30T12:15:59.661Z,24.50
2019-05-30T12:18:27.462Z,24.00
2019-05-30T12:20:55.709Z,23.50
2019-05-30T12:23:23.479Z,23.40
2019-05-30T12:25:51.989Z,23.40
2019-05-30T12:28:19.707Z,23.50
2019-05-30T12:30:56.769Z,23.50
2019-05-30T12:33:16.955Z,23.80
2019-05-30T12:35:44.664Z,24.10
2019-05-30T12:38:12.391Z,24.20
2019-05-30T12:40:40.669Z,24.00
2019-05-30T12:43:08.366Z,24.00
2019-05-30T12:45:36.149Z,24.40
2019-05-30T12:48:04.315Z,24.60
2019-05-30T12:50:32.061Z,24.60
2019-05-30T12:53:00.447Z,24.40
2019-05-30T12:55:29.293Z,24.20
2019-05-30T12:57:57.009Z,24.60
2019-05-30T13:00:25.348Z,24.90
2019-05-30T13:02:53.061Z,24.90
2019-05-30T13:05:21.071Z,25.10
2019-05-30T13:07:48.774Z,24.70
2019-05-30T13:10:16.492Z,24.80
2019-05-30T13:12:44.218Z,25.40
2019-05-30T13:15:11.913Z,25.70
2019-05-30T13:17:39.637Z,25.80
2019-05-30T13:20:07.765Z,25.70
2019-05-30T13:22:35.609Z,25.20
2019-05-30T13:25:03.875Z,25.10
2019-05-30T13:27:31.567Z,25.20
2019-05-30T13:29:59.968Z,25.30
2019-05-30T13:32:27.790Z,25.40
2019-05-30T13:34:56.763Z,25.80
2019-05-30T13:37:24.561Z,25.90
2019-05-30T13:39:52.294Z,26.00
2019-05-30T13:42:20.098Z,26.00
2019-05-30T13:44:47.847Z,26.10
2019-05-30T13:47:15.669Z,26.20
2019-05-30T13:49:43.414Z,26.30
2019-05-30T13:52:11.078Z,26.40
2019-05-30T13:54:38.837Z,26.50
2019-05-30T13:57:07.711Z,26.70
2019-05-30T13:59:35.581Z,27.00
2019-05-30T14:02:03.944Z,26.90
2019-05-30T14:04:31.723Z,27.00
2019-05-30T14:07:00.026Z,27.00
2019-05-30T14:09:27.853Z,26.30
2019-05-30T14:11:55.541Z,25.60
2019-05-30T14:14:23.274Z,25.60
2019-05-30T14:16:51.008Z,25.40
2019-05-30T14:19:18.777Z,25.70
2019-05-30T14:21:46.474Z,25.30
2019-05-30T14:24:14.193Z,24.80
2019-05-30T14:26:41.925Z,24.60
2019-05-30T14:29:09.884Z,24.50
2019-05-30T14:31:37.553Z,24.80
2019-05-30T14:34:05.995Z,25.00
2019-05-30T14:36:33.777Z,25.30
2019-05-30T14:39:02.603Z,25.40
2019-05-30T14:41:30.580Z,25.40
2019-05-30T14:43:58.297Z,25.00
2019-05-30T14:46:26.000Z,25.00
2019-05-30T14:48:53.739Z,25.00
2019-05-30T14:51:21.597Z,24.90
2019-05-30T14:53:49.305Z,24.80
2019-05-30T14:56:17.595Z,24.60
2019-05-30T14:58:45.477Z,24.40
2019-05-30T15:01:13.477Z,24.30
2019-05-30T15:03:41.320Z,24.30
2019-05-30T15:06:12.762Z,24.40
2019-05-30T15:08:38.554Z,24.40
2019-05-30T15:11:07.397Z,24.50
2019-05-30T15:13:35.159Z,24.50
2019-05-30T15:16:03.084Z,24.70
2019-05-30T15:18:30.793Z,24.60
2019-05-30T15:20:58.969Z,24.50
2019-05-30T15:23:26.902Z,24.40
2019-05-30T15:25:54.554Z,24.30
2019-05-30T15:28:22.251Z,24.20
2019-05-30T15:30:49.983Z,24.30
2019-05-30T15:33:17.708Z,24.30
2019-05-30T15:35:45.480Z,24.30
2019-05-30T15:38:13.174Z,24.40
2019-05-30T15:40:40.906Z,24.50
2019-05-30T15:43:09.305Z,24.60
2019-05-30T15:45:37.124Z,24.70
2019-05-30T15:48:04.872Z,24.80
2019-05-30T15:50:33.292Z,24.80
2019-05-30T15:53:01.030Z,24.90
2019-05-30T15:55:28.757Z,24.90
2019-05-30T15:57:56.473Z,24.90
2019-05-30T16:00:24.325Z,24.80
2019-05-30T16:02:52.066Z,24.70
2019-05-30T16:05:20.573Z,24.70
2019-05-30T16:07:48.373Z,24.80
2019-05-30T16:10:16.972Z,24.90
2019-05-30T16:12:44.818Z,24.80
2019-05-30T16:15:13.436Z,24.90
2019-05-30T16:17:41.197Z,24.80
2019-05-30T16:20:08.901Z,24.80
2019-05-30T16:22:39.522Z,24.70
2019-05-30T16:25:07.245Z,24.70
2019-05-30T16:27:34.982Z,24.60
2019-05-30T16:30:03.102Z,24.70
2019-05-30T16:32:30.997Z,24.60
2019-05-30T16:34:58.693Z,24.60
2019-05-30T16:37:26.419Z,24.60
2019-05-30T16:40:05.097Z,24.60
2019-05-30T16:42:23.688Z,24.60
2019-05-30T16:44:51.538Z,24.60
2019-05-30T16:47:20.388Z,24.70
2019-05-30T16:49:48.146Z,24.80
2019-05-30T16:52:16.753Z,24.90
2019-05-30T16:54:44.575Z,24.90
2019-05-30T16:57:12.297Z,25.00
2019-05-30T16:59:40.023Z,24.90
2019-05-30T17:02:07.794Z,24.80
2019-05-30T17:04:35.498Z,24.50
2019-05-30T17:07:03.215Z,24.30
2019-05-30T17:09:30.923Z,24.10
2019-05-30T17:11:58.645Z,24.10
2019-05-30T17:14:26.352Z,24.00
2019-05-30T17:16:54.134Z,24.10
2019-05-30T17:19:22.339Z,24.10
2019-05-30T17:21:50.110Z,24.20
2019-05-30T17:24:18.815Z,24.30
2019-05-30T17:26:46.636Z,24.30
2019-05-30T17:29:14.325Z,24.20
2019-05-30T17:31:42.031Z,24.00
2019-05-30T17:34:09.843Z,23.90
2019-05-30T17:36:37.548Z,23.60
2019-05-30T17:39:07.202Z,23.30
2019-05-30T17:41:34.902Z,23.20
2019-05-30T17:44:02.670Z,23.00
2019-05-30T17:46:30.459Z,23.00
2019-05-30T17:48:58.209Z,22.90
2019-05-30T17:51:25.946Z,22.80
2019-05-30T17:53:53.701Z,22.70
2019-05-30T17:56:22.084Z,22.60
2019-05-30T17:58:49.991Z,22.60
2019-05-30T18:01:17.687Z,22.50
2019-05-30T18:03:45.539Z,22.50
2019-05-30T18:06:13.243Z,22.40
2019-05-30T18:08:41.105Z,22.40
2019-05-30T18:11:08.824Z,22.30
2019-05-30T18:13:36.781Z,22.30
2019-05-30T18:16:04.613Z,22.30
2019-05-30T18:18:32.377Z,22.20
2019-05-30T18:21:00.095Z,22.20
2019-05-30T18:23:28.131Z,22.10
2019-05-30T18:25:55.849Z,22.10
2019-05-30T18:28:23.657Z,22.10
2019-05-30T18:30:51.658Z,22.10
2019-05-30T18:33:52.623Z,22.00
2019-05-30T18:37:01.907Z,22.00
2019-05-30T18:40:01.374Z,21.90
2019-05-30T18:42:29.215Z,21.90
2019-05-30T18:44:57.336Z,21.80
2019-05-30T18:47:25.216Z,21.70
2019-05-30T18:49:53.606Z,21.70
2019-05-30T18:52:21.724Z,21.60
2019-05-30T18:54:49.663Z,21.50
2019-05-30T18:57:17.370Z,21.50
2019-05-30T18:59:52.344Z,21.40
2019-05-30T19:02:20.110Z,21.40
2019-05-30T19:04:47.945Z,21.40
2019-05-30T19:07:15.676Z,21.40
2019-05-30T19:09:45.673Z,21.30
2019-05-30T19:12:13.361Z,21.20
2019-05-30T19:14:48.422Z,21.20
2019-05-30T19:17:16.120Z,21.00
2019-05-30T19:19:43.839Z,20.90
2019-05-30T19:22:11.602Z,20.80
2019-05-30T19:24:39.589Z,20.70
2019-05-30T19:27:07.305Z,20.70
2019-05-30T19:29:35.073Z,20.60
2019-05-30T19:32:02.909Z,20.50
2019-05-30T19:34:30.762Z,20.40
2019-05-30T19:36:58.453Z,20.40
2019-05-30T19:39:27.197Z,20.30
2019-05-30T19:41:57.435Z,20.30
2019-05-30T19:44:24.522Z,20.20
2019-05-30T19:46:52.330Z,20.10
2019-05-30T19:49:20.033Z,20.10
2019-05-30T19:51:47.801Z,20.00
2019-05-30T19:54:15.505Z,20.00
2019-05-30T19:56:43.256Z,20.00
2019-05-30T19:59:10.968Z,20.00
2019-05-30T20:01:40.008Z,20.00
2019-05-30T20:04:07.769Z,19.90
2019-05-30T20:06:36.580Z,19.90
2019-05-30T20:09:06.509Z,19.80
2019-05-30T20:11:35.207Z,19.80
2019-05-30T20:14:02.978Z,19.80
2019-05-30T20:16:31.395Z,19.80
2019-05-30T20:18:59.234Z,19.70
2019-05-30T20:21:27.049Z,19.70
2019-05-30T20:23:59.266Z,19.70
2019-05-30T20:26:24.414Z,19.60
2019-05-30T20:28:55.629Z,19.50
2019-05-30T20:31:23.460Z,19.50
2019-05-30T20:33:51.398Z,19.50
2019-05-30T20:36:19.143Z,19.50
2019-05-30T20:38:47.091Z,19.40
2019-05-30T20:41:15.965Z,19.40
2019-05-30T20:43:43.665Z,19.30
2019-05-30T20:46:22.738Z,19.30
2019-05-30T20:48:43.252Z,19.30
2019-05-30T20:51:20.717Z,19.30
2019-05-30T20:53:41.246Z,19.20
2019-05-30T20:56:09.057Z,19.20
2019-05-30T20:58:37.546Z,19.20
2019-05-30T21:01:05.285Z,19.10
2019-05-30T21:03:33.029Z,19.10
2019-05-30T21:06:00.732Z,19.10
2019-05-30T21:08:28.440Z,19.10
2019-05-30T21:10:57.073Z,19.00
2019-05-30T21:13:24.815Z,19.00
2019-05-30T21:15:52.543Z,19.00
2019-05-30T21:18:20.262Z,18.90
2019-05-30T21:20:48.074Z,18.90
2019-05-30T21:23:15.784Z,18.80
2019-05-30T21:25:45.090Z,18.80
2019-05-30T21:28:13.067Z,18.80
2019-05-30T21:30:41.330Z,18.80
2019-05-30T21:33:09.188Z,18.70
2019-05-30T21:35:37.485Z,18.70
2019-05-30T21:38:05.608Z,18.70
2019-05-30T21:40:44.459Z,18.60
2019-05-30T21:43:12.414Z,18.60
2019-05-30T21:45:40.386Z,18.50
2019-05-30T21:48:08.223Z,18.50
2019-05-30T21:50:36.029Z,18.50
2019-05-30T21:53:04.257Z,18.50
2019-05-30T21:55:31.998Z,18.40
2019-05-30T21:58:00.197Z,18.40
2019-05-30T22:01:04.575Z,18.30
2019-05-30T22:03:32.306Z,18.30
2019-05-30T22:06:00.017Z,18.30
2019-05-30T22:08:27.729Z,18.30
2019-05-30T22:10:55.450Z,18.20
2019-05-30T22:13:23.369Z,18.20
2019-05-30T22:15:52.137Z,18.20
2019-05-30T22:18:20.281Z,18.10
2019-05-30T22:20:48.027Z,18.10
2019-05-30T22:23:15.708Z,18.00
2019-05-30T22:25:44.203Z,18.00
2019-05-30T22:28:12.026Z,17.90
2019-05-30T22:30:39.889Z,17.90
2019-05-30T22:33:07.653Z,17.80
2019-05-30T22:35:35.369Z,17.80
2019-05-30T22:38:03.106Z,17.80
2019-05-30T22:40:31.653Z,17.70
2019-05-30T22:42:59.410Z,17.70
2019-05-30T22:45:27.133Z,17.70
2019-05-30T22:47:56.811Z,17.60
2019-05-30T22:50:24.569Z,17.60
2019-05-30T22:52:53.033Z,17.60
2019-05-30T22:55:20.723Z,17.50
2019-05-30T22:57:48.503Z,17.50
2019-05-30T23:00:16.239Z,17.50
2019-05-30T23:02:43.925Z,17.40
2019-05-30T23:05:11.753Z,17.40
2019-05-30T23:07:39.639Z,17.30
2019-05-30T23:10:08.232Z,17.20
2019-05-30T23:12:36.106Z,17.10
2019-05-30T23:15:04.241Z,17.00
2019-05-30T23:17:32.162Z,16.90
2019-05-30T23:20:00.082Z,16.80
2019-05-30T23:22:28.097Z,16.60
2019-05-30T23:24:57.423Z,16.50
2019-05-30T23:27:25.460Z,16.40
2019-05-30T23:29:53.914Z,16.30
2019-05-30T23:32:21.842Z,16.30
2019-05-30T23:34:50.152Z,16.30
2019-05-30T23:37:18.316Z,16.20
2019-05-30T23:39:46.230Z,16.10
2019-05-30T23:42:15.379Z,16.00
2019-05-30T23:44:43.083Z,16.00
2019-05-30T23:47:10.909Z,16.00
2019-05-30T23:49:38.726Z,16.00
2019-05-30T23:52:06.560Z,16.00
2019-05-30T23:54:34.236Z,16.00
2019-05-30T23:57:01.971Z,15.90
2019-05-30T23:59:29.668Z,15.80
